Time;durP1;ratioP1;P1;durP2;ratioP2;P2;SDS_P1;SDS_P2;PMS_P1;PMS_P2;Temp;Humidity;BMP_temperature;BMP_pressure;BME280_temperature;BME280_humidity;BME280_pressure;Samples;Min_cycle;Max_cycle;Signal;HPM_P1;HPM_P2
2021/12/04 00:01:11;;;;;;;5.20;3.57;;;;;;;;;;4952386;28;20622;-76
2021/12/04 00:04:36;;;;;;;4.27;3.07;;;;;;;;;;4975476;28;20578;-76
2021/12/04 00:07:40;;;;;;;5.30;3.40;;;;;;;;;;4994810;28;20546;-76
2021/12/04 00:10:44;;;;;;;5.60;3.47;;;;;;;;;;4982164;28;20577;-76
2021/12/04 00:13:49;;;;;;;4.10;3.17;;;;;;;;;;4982473;28;20538;-76
2021/12/04 00:16:53;;;;;;;3.73;2.87;;;;;;;;;;4982425;28;20597;-77
2021/12/04 00:19:57;;;;;;;3.90;2.87;;;;;;;;;;4970265;28;20594;-77
2021/12/04 00:23:02;;;;;;;5.37;3.13;;;;;;;;;;4983628;28;20621;-77
2021/12/04 00:26:06;;;;;;;4.33;2.90;;;;;;;;;;4974857;28;20586;-77
2021/12/04 00:29:11;;;;;;;5.57;2.57;;;;;;;;;;4963067;28;20550;-77
2021/12/04 00:32:25;;;;;;;6.17;2.70;;;;;;;;;;4977215;28;21228;-75
2021/12/04 00:52:04;;;;;;;3.30;2.67;;;;;;;;;;4990101;28;20700;-77
2021/12/04 00:55:08;;;;;;;4.30;3.13;;;;;;;;;;4974372;28;20546;-77
2021/12/04 00:58:12;;;;;;;2.77;2.13;;;;;;;;;;4974399;28;20562;-77
2021/12/04 01:01:18;;;;;;;4.03;2.13;;;;;;;;;;4981513;28;20652;-77
2021/12/04 01:04:23;;;;;;;3.70;2.77;;;;;;;;;;4985941;28;20586;-77
2021/12/04 01:07:27;;;;;;;3.80;2.23;;;;;;;;;;4970933;28;20550;-76
2021/12/04 01:10:31;;;;;;;5.17;2.40;;;;;;;;;;4971018;28;21070;-77
2021/12/04 01:13:35;;;;;;;6.03;2.53;;;;;;;;;;4978671;28;20610;-75
2021/12/04 01:16:39;;;;;;;3.87;2.40;;;;;;;;;;4974429;28;20555;-75
2021/12/04 01:19:43;;;;;;;3.77;2.40;;;;;;;;;;4966457;28;20594;-75
2021/12/04 01:22:47;;;;;;;3.37;2.60;;;;;;;;;;4971685;28;21018;-75
2021/12/04 01:25:51;;;;;;;3.10;2.13;;;;;;;;;;4992924;28;20593;-75
2021/12/04 01:28:56;;;;;;;3.83;2.60;;;;;;;;;;4992412;28;20589;-75
2021/12/04 01:32:00;;;;;;;2.73;2.00;;;;;;;;;;4989937;28;21242;-76
2021/12/04 01:35:04;;;;;;;3.73;1.77;;;;;;;;;;4973923;28;20602;-75
2021/12/04 01:38:10;;;;;;;2.73;2.00;;;;;;;;;;4962118;28;20547;-75
2021/12/04 01:41:14;;;;;;;2.97;2.17;;;;;;;;;;4962177;28;20622;-75
2021/12/04 01:44:18;;;;;;;3.30;2.17;;;;;;;;;;4962030;28;20546;-75
2021/12/04 01:47:22;;;;;;;2.60;2.10;;;;;;;;;;4962017;28;20602;-75
2021/12/04 01:50:27;;;;;;;2.73;2.10;;;;;;;;;;4962029;28;20555;-75
2021/12/04 01:53:32;;;;;;;4.13;2.60;;;;;;;;;;4988708;28;20923;-75
2021/12/04 01:56:36;;;;;;;3.20;2.30;;;;;;;;;;4981560;28;20542;-75
2021/12/04 01:59:41;;;;;;;2.80;2.07;;;;;;;;;;4993268;28;20554;-75
2021/12/04 02:02:45;;;;;;;2.33;1.73;;;;;;;;;;4974264;28;21237;-75
2021/12/04 02:05:50;;;;;;;2.87;1.97;;;;;;;;;;4976875;28;20542;-75
2021/12/04 02:08:55;;;;;;;2.30;1.90;;;;;;;;;;4965748;28;20543;-75
2021/12/04 02:11:59;;;;;;;2.43;2.07;;;;;;;;;;4965611;28;20653;-76
2021/12/04 02:15:05;;;;;;;3.33;1.80;;;;;;;;;;4982147;28;20585;-75
2021/12/04 02:18:09;;;;;;;2.57;1.70;;;;;;;;;;4996925;28;20545;-75
2021/12/04 02:21:15;;;;;;;2.27;1.50;;;;;;;;;;4995746;28;20624;-75
2021/12/04 02:24:19;;;;;;;2.37;1.80;;;;;;;;;;4965419;28;21204;-75
2021/12/04 02:27:23;;;;;;;2.10;1.37;;;;;;;;;;4977231;28;20630;-75
2021/12/04 02:30:32;;;;;;;3.50;1.60;;;;;;;;;;4965056;28;20551;-75
2021/12/04 02:33:36;;;;;;;2.17;1.50;;;;;;;;;;4986584;28;20582;-75
2021/12/04 02:36:40;;;;;;;3.10;1.60;;;;;;;;;;4984489;28;20609;-76
2021/12/04 02:39:45;;;;;;;2.10;1.80;;;;;;;;;;4984463;28;20605;-77
2021/12/04 02:42:50;;;;;;;2.77;1.63;;;;;;;;;;4986026;28;20657;-77
2021/12/04 02:45:54;;;;;;;3.20;2.03;;;;;;;;;;4984614;28;20542;-77
2021/12/04 02:49:00;;;;;;;3.37;1.90;;;;;;;;;;4996020;28;20553;-77
2021/12/04 02:52:07;;;;;;;2.97;1.60;;;;;;;;;;4987042;28;21194;-77
2021/12/04 02:55:11;;;;;;;2.23;1.30;;;;;;;;;;4975934;28;20547;-77
2021/12/04 02:58:16;;;;;;;2.50;1.80;;;;;;;;;;4976651;28;20543;-77
2021/12/04 03:01:20;;;;;;;2.67;1.63;;;;;;;;;;4976300;28;20629;-76
2021/12/04 03:04:27;;;;;;;1.93;1.50;;;;;;;;;;4980973;28;20593;-77
2021/12/04 03:07:31;;;;;;;2.80;1.70;;;;;;;;;;4983674;28;20593;-77
2021/12/04 03:10:35;;;;;;;3.63;1.87;;;;;;;;;;4983247;28;20951;-76
2021/12/04 03:13:39;;;;;;;2.00;1.70;;;;;;;;;;4993616;28;20624;-76
2021/12/04 03:16:43;;;;;;;4.50;2.23;;;;;;;;;;4995810;28;20553;-76
2021/12/04 03:19:50;;;;;;;2.70;2.03;;;;;;;;;;4995482;28;20558;-76
2021/12/04 03:22:59;;;;;;;3.33;1.73;;;;;;;;;;4987380;28;20657;-74
2021/12/04 03:26:08;;;;;;;3.07;2.00;;;;;;;;;;4991483;28;20597;-74
2021/12/04 03:29:17;;;;;;;2.27;1.90;;;;;;;;;;4995250;28;20558;-74
2021/12/04 03:32:49;;;;;;;2.23;1.60;;;;;;;;;;4983153;28;20657;-73
2021/12/04 03:42:18;;;;;;;3.07;2.00;;;;;;;;;;4993779;28;20621;-73
2021/12/04 03:45:22;;;;;;;2.77;1.80;;;;;;;;;;4972661;28;20581;-73
2021/12/04 03:51:37;;;;;;;1.50;1.40;;;;;;;;;;4993441;28;20624;-73
2021/12/04 03:54:42;;;;;;;1.77;1.40;;;;;;;;;;4992219;28;20589;-72
2021/12/04 03:57:47;;;;;;;1.37;1.27;;;;;;;;;;4994040;28;20554;-72
2021/12/04 04:00:51;;;;;;;1.30;1.20;;;;;;;;;;4995146;28;20628;-72
2021/12/04 04:03:55;;;;;;;2.80;1.20;;;;;;;;;;4980697;28;21149;-72
2021/12/04 04:07:00;;;;;;;1.27;1.17;;;;;;;;;;4963318;28;20539;-72
2021/12/04 04:10:05;;;;;;;1.30;1.20;;;;;;;;;;4952105;28;20622;-72
2021/12/04 04:13:12;;;;;;;1.67;1.10;;;;;;;;;;4974974;28;20591;-72
2021/12/04 04:16:16;;;;;;;0.97;0.90;;;;;;;;;;4952318;28;20535;-72
2021/12/04 04:19:21;;;;;;;1.00;0.90;;;;;;;;;;4971580;28;20593;-72
2021/12/04 04:22:25;;;;;;;1.77;1.13;;;;;;;;;;4993482;28;20677;-72
2021/12/04 04:25:29;;;;;;;1.83;1.00;;;;;;;;;;5041098;23;20683;-75
2021/12/04 04:28:33;;;;;;;1.70;1.00;;;;;;;;;;5021150;28;20619;-75
2021/12/04 04:31:49;;;;;;;0.90;0.90;;;;;;;;;;5021313;28;20630;-75
2021/12/04 04:34:55;;;;;;;1.90;0.93;;;;;;;;;;5023165;28;20584;-75
2021/12/04 04:38:10;;;;;;;1.30;0.90;;;;;;;;;;5033401;28;20928;-76
2021/12/04 04:58:17;;;;;;;1.70;1.20;;;;;;;;;;5013547;28;20561;-76
2021/12/04 05:11:19;;;;;;;1.60;1.40;;;;;;;;;;5012601;28;21184;-76
2021/12/04 05:14:23;;;;;;;2.00;1.70;;;;;;;;;;5001212;28;20553;-76
2021/12/04 05:18:22;;;;;;;2.97;1.80;;;;;;;;;;5013341;28;21160;-76
2021/12/04 05:21:05;;;;;;;3.00;2.10;;;;;;;;;;5025742;28;20655;-76
2021/12/04 05:24:09;;;;;;;3.77;2.47;;;;;;;;;;5020846;28;20611;-75
2021/12/04 05:27:14;;;;;;;2.10;1.90;;;;;;;;;;5021014;28;20869;-76
2021/12/04 05:30:19;;;;;;;4.70;2.80;;;;;;;;;;5024218;28;20949;-75
2021/12/04 05:33:23;;;;;;;4.13;2.40;;;;;;;;;;5013331;28;20938;-76
2021/12/04 05:36:27;;;;;;;2.97;2.40;;;;;;;;;;5001983;28;20541;-75
2021/12/04 05:39:31;;;;;;;3.80;2.90;;;;;;;;;;5024199;28;20547;-75
2021/12/04 05:42:35;;;;;;;4.23;2.67;;;;;;;;;;5024273;28;20615;-76
2021/12/04 05:45:54;;;;;;;4.83;2.80;;;;;;;;;;5017226;28;20585;-77
2021/12/04 05:49:07;;;;;;;3.63;2.43;;;;;;;;;;5012343;28;20599;-77
2021/12/04 05:52:22;;;;;;;2.83;2.53;;;;;;;;;;5010497;28;20624;-78
2021/12/04 05:55:27;;;;;;;2.93;2.50;;;;;;;;;;5014530;28;20891;-79
2021/12/04 05:58:33;;;;;;;5.70;2.40;;;;;;;;;;5029876;28;20595;-80
2021/12/04 06:01:37;;;;;;;3.30;2.97;;;;;;;;;;5021422;28;20655;-80
2021/12/04 06:04:41;;;;;;;4.43;3.00;;;;;;;;;;5035026;28;20560;-80
2021/12/04 06:07:45;;;;;;;3.57;2.67;;;;;;;;;;5012627;28;20553;-81
2021/12/04 06:10:51;;;;;;;3.80;2.90;;;;;;;;;;5012418;28;20549;-81
2021/12/04 06:13:56;;;;;;;3.83;3.10;;;;;;;;;;5015099;28;20981;-80
2021/12/04 06:17:01;;;;;;;4.27;3.20;;;;;;;;;;5000851;28;20624;-81
2021/12/04 06:23:29;;;;;;;5.33;4.10;;;;;;;;;;5000529;28;20541;-79
2021/12/04 06:26:35;;;;;;;5.30;3.00;;;;;;;;;;5008374;28;20575;-78
2021/12/04 06:29:39;;;;;;;3.77;3.17;;;;;;;;;;5029942;28;20536;-78
2021/12/04 06:32:47;;;;;;;5.30;2.77;;;;;;;;;;5019870;28;20660;-78
2021/12/04 06:35:52;;;;;;;3.87;3.17;;;;;;;;;;5006721;28;20545;-78
2021/12/04 06:38:56;;;;;;;4.40;2.70;;;;;;;;;;5007139;28;20902;-79
2021/12/04 06:42:00;;;;;;;2.83;2.60;;;;;;;;;;5019762;28;20632;-78
2021/12/04 06:45:06;;;;;;;6.00;3.13;;;;;;;;;;5032298;28;20587;-78
2021/12/04 06:48:22;;;;;;;4.30;2.47;;;;;;;;;;5020102;28;20548;-79
2021/12/04 06:51:31;;;;;;;3.67;2.90;;;;;;;;;;5016079;28;20652;-79
2021/12/04 06:54:39;;;;;;;5.67;2.73;;;;;;;;;;5017327;28;20623;-79
2021/12/04 06:57:44;;;;;;;4.17;2.97;;;;;;;;;;5019993;28;20552;-79
2021/12/04 07:00:48;;;;;;;4.00;3.10;;;;;;;;;;5012625;28;20570;-79
2021/12/04 07:03:52;;;;;;;5.53;3.20;;;;;;;;;;5013502;28;20588;-79
2021/12/04 07:06:57;;;;;;;4.10;2.83;;;;;;;;;;5021285;28;20572;-79
2021/12/04 07:10:02;;;;;;;3.57;2.67;;;;;;;;;;5022910;28;20552;-78
2021/12/04 07:13:06;;;;;;;5.17;2.70;;;;;;;;;;5015472;28;21168;-79
2021/12/04 07:16:14;;;;;;;4.13;2.87;;;;;;;;;;5024468;28;20597;-79
2021/12/04 07:19:18;;;;;;;4.73;3.00;;;;;;;;;;5012709;28;20584;-79
2021/12/04 07:22:22;;;;;;;4.70;2.90;;;;;;;;;;5002037;28;20646;-78
2021/12/04 07:25:27;;;;;;;3.47;3.03;;;;;;;;;;5033230;28;21019;-78
2021/12/04 07:28:32;;;;;;;3.57;3.07;;;;;;;;;;5038232;28;20552;-78
2021/12/04 07:31:39;;;;;;;3.73;2.57;;;;;;;;;;5031416;28;20623;-79
2021/12/04 07:34:43;;;;;;;3.03;2.60;;;;;;;;;;5028862;28;20623;-78
2021/12/04 07:37:48;;;;;;;4.40;2.60;;;;;;;;;;5031261;28;20603;-78
2021/12/04 07:40:52;;;;;;;5.03;3.50;;;;;;;;;;5031347;28;20631;-78
2021/12/04 07:43:56;;;;;;;6.47;3.30;;;;;;;;;;5045147;28;20552;-77
2021/12/04 07:47:01;;;;;;;3.70;2.60;;;;;;;;;;5022407;28;20591;-77
2021/12/04 07:50:07;;;;;;;5.77;3.33;;;;;;;;;;5021126;28;20591;-75
2021/12/04 07:53:11;;;;;;;3.77;3.13;;;;;;;;;;5020210;28;21004;-77
2021/12/04 07:56:16;;;;;;;5.90;3.30;;;;;;;;;;5010256;28;21198;-77
2021/12/04 07:59:20;;;;;;;4.53;3.70;;;;;;;;;;5021377;28;20596;-78
2021/12/04 08:02:24;;;;;;;4.30;2.83;;;;;;;;;;5012750;28;20652;-77
2021/12/04 08:05:29;;;;;;;4.43;2.87;;;;;;;;;;5016115;28;21136;-77
2021/12/04 08:08:33;;;;;;;4.53;2.67;;;;;;;;;;5009176;28;20611;-77
2021/12/04 08:11:37;;;;;;;8.13;2.73;;;;;;;;;;5014831;28;20624;-77
2021/12/04 08:14:42;;;;;;;7.10;2.97;;;;;;;;;;5004281;28;20664;-78
2021/12/04 08:17:47;;;;;;;4.73;2.90;;;;;;;;;;5020943;28;20969;-78
2021/12/04 08:20:51;;;;;;;3.73;3.00;;;;;;;;;;5028234;28;20624;-78
2021/12/04 08:23:58;;;;;;;4.30;2.57;;;;;;;;;;5015934;28;20599;-78
2021/12/04 08:27:03;;;;;;;6.07;3.43;;;;;;;;;;5024765;28;20591;-78
2021/12/04 08:30:12;;;;;;;4.97;2.97;;;;;;;;;;5026165;28;20595;-77
2021/12/04 08:33:16;;;;;;;7.07;2.70;;;;;;;;;;5017342;28;20645;-77
2021/12/04 08:36:21;;;;;;;4.43;2.87;;;;;;;;;;5011927;28;20596;-77
2021/12/04 08:39:25;;;;;;;3.93;2.90;;;;;;;;;;5003588;28;20604;-78
2021/12/04 08:42:29;;;;;;;3.00;2.37;;;;;;;;;;4986832;28;21183;-77
2021/12/04 08:45:35;;;;;;;3.67;2.40;;;;;;;;;;5010468;28;20596;-76
2021/12/04 08:48:39;;;;;;;3.03;2.60;;;;;;;;;;4998072;28;20918;-77
2021/12/04 08:51:44;;;;;;;4.20;2.73;;;;;;;;;;5010700;28;21446;-76
2021/12/04 08:54:48;;;;;;;5.13;2.67;;;;;;;;;;5006133;28;20655;-77
2021/12/04 08:57:52;;;;;;;4.00;2.33;;;;;;;;;;5013356;28;20618;-77
2021/12/04 09:01:01;;;;;;;2.90;2.43;;;;;;;;;;5024573;28;20631;-78
2021/12/04 09:04:23;;;;;;;6.03;2.50;;;;;;;;;;5005734;28;20611;-78
2021/12/04 09:07:27;;;;;;;5.27;2.30;;;;;;;;;;5011969;28;20599;-77
2021/12/04 09:10:32;;;;;;;3.27;2.77;;;;;;;;;;4997562;28;20627;-80
2021/12/04 09:13:37;;;;;;;4.23;2.23;;;;;;;;;;5019200;28;20655;-80
2021/12/04 09:16:42;;;;;;;3.13;2.33;;;;;;;;;;5014556;28;20619;-81
2021/12/04 09:19:47;;;;;;;3.47;2.60;;;;;;;;;;4994539;28;20596;-79
2021/12/04 09:22:52;;;;;;;3.63;2.20;;;;;;;;;;4993490;28;20627;-81
2021/12/04 09:26:00;;;;;;;3.00;2.23;;;;;;;;;;5009832;28;20987;-80
2021/12/04 09:59:46;;;;;;;2.17;1.40;;;;;;;;;;5014362;28;21101;-81
2021/12/04 10:22:57;;;;;;;2.90;1.73;;;;;;;;;;5021506;28;20620;-81
2021/12/04 10:33:17;;;;;;;2.90;1.80;;;;;;;;;;4948949;28;20602;-78
2021/12/04 10:36:31;;;;;;;2.60;1.87;;;;;;;;;;4975067;28;20948;-78
2021/12/04 10:39:36;;;;;;;1.67;1.47;;;;;;;;;;4978957;28;20806;-77
2021/12/04 10:42:49;;;;;;;2.20;1.30;;;;;;;;;;4956368;29;20863;-78
2021/12/04 10:46:00;;;;;;;1.67;1.30;;;;;;;;;;4960365;28;20590;-77
2021/12/04 10:49:13;;;;;;;1.47;1.20;;;;;;;;;;4973726;28;20200;-77
2021/12/04 10:52:24;;;;;;;1.87;1.30;;;;;;;;;;4950455;28;20214;-77
2021/12/04 10:55:37;;;;;;;3.40;1.30;;;;;;;;;;4973071;28;21024;-76
2021/12/04 11:05:12;;;;;;;1.50;1.40;;;;;;;;;;4975768;28;20198;-77
2021/12/04 11:18:44;;;;;;;1.83;1.60;;;;;;;;;;4967137;28;20188;-77
2021/12/04 11:22:11;;;;;;;3.93;2.57;;;;;;;;;;4956872;29;20223;-77
2021/12/04 11:38:18;;;;;;;2.80;1.53;;;;;;;;;;4996993;28;20194;-77
2021/12/04 11:47:58;;;;;;;1.60;1.50;;;;;;;;;;4973746;28;20194;-79
2021/12/04 11:51:09;;;;;;;1.50;1.40;;;;;;;;;;4996232;28;20222;-80
2021/12/04 11:54:15;;;;;;;2.17;1.43;;;;;;;;;;4996632;28;20194;-79
2021/12/04 11:57:34;;;;;;;1.17;1.07;;;;;;;;;;4975723;28;20194;-78
2021/12/04 12:00:41;;;;;;;3.53;1.87;;;;;;;;;;4994567;28;20663;-79
2021/12/04 12:03:53;;;;;;;3.83;2.17;;;;;;;;;;4997344;28;20198;-79
2021/12/04 12:07:12;;;;;;;3.23;2.37;;;;;;;;;;4975821;28;20666;-78
2021/12/04 12:10:17;;;;;;;7.77;3.20;;;;;;;;;;4973341;28;20198;-80
2021/12/04 12:13:24;;;;;;;5.13;2.57;;;;;;;;;;4990566;28;20253;-79
2021/12/04 12:16:36;;;;;;;3.10;2.10;;;;;;;;;;4987814;28;20194;-79
2021/12/04 12:19:49;;;;;;;3.47;2.53;;;;;;;;;;4985635;28;20194;-79
2021/12/04 12:23:02;;;;;;;7.40;3.20;;;;;;;;;;4983799;28;20222;-78
2021/12/04 12:33:24;;;;;;;5.53;3.70;;;;;;;;;;4993386;28;20194;-78
2021/12/04 12:36:31;;;;;;;5.67;3.90;;;;;;;;;;4982316;28;20210;-77
2021/12/04 12:39:35;;;;;;;10.27;4.27;;;;;;;;;;4971460;28;20638;-77
2021/12/04 12:42:41;;;;;;;9.63;4.67;;;;;;;;;;4982772;28;20222;-76
2021/12/04 12:45:56;;;;;;;7.73;4.40;;;;;;;;;;4981744;28;20190;-77
2021/12/04 12:49:01;;;;;;;6.97;4.53;;;;;;;;;;4981635;28;20182;-77
2021/12/04 12:52:24;;;;;;;10.73;4.67;;;;;;;;;;4989668;28;20222;-77
2021/12/04 12:55:32;;;;;;;7.47;4.47;;;;;;;;;;4970607;28;20552;-77
2021/12/04 12:59:33;;;;;;;4.33;3.63;;;;;;;;;;4983410;28;20174;-78
2021/12/04 13:12:17;;;;;;;6.80;2.53;;;;;;;;;;4981955;28;20214;-78
2021/12/04 13:15:33;;;;;;;2.97;2.20;;;;;;;;;;4971540;28;20210;-79
2021/12/04 13:18:38;;;;;;;1.77;1.40;;;;;;;;;;4985388;28;20205;-80
2021/12/04 13:21:46;;;;;;;2.37;1.90;;;;;;;;;;4962225;28;20225;-80
2021/12/04 13:24:53;;;;;;;9.37;5.73;;;;;;;;;;4997807;28;20202;-78
2021/12/04 13:31:03;;;;;;;21.53;13.23;;;;;;;;;;4984005;28;20214;-78
2021/12/04 13:34:10;;;;;;;3.13;2.57;;;;;;;;;;4987246;28;20194;-78
2021/12/04 13:37:14;;;;;;;6.13;4.80;;;;;;;;;;4995839;28;20550;-79
2021/12/04 13:40:20;;;;;;;14.87;9.20;;;;;;;;;;4988566;28;20197;-79
2021/12/04 13:43:25;;;;;;;37.23;25.67;;;;;;;;;;4984549;28;20189;-80
2021/12/04 13:46:39;;;;;;;40.10;22.87;;;;;;;;;;4966208;28;20186;-79
2021/12/04 13:50:00;;;;;;;25.40;16.17;;;;;;;;;;5011081;28;20186;-78
2021/12/04 13:53:17;;;;;;;18.00;14.33;;;;;;;;;;4992077;28;20187;-80
2021/12/04 13:56:24;;;;;;;15.27;9.83;;;;;;;;;;4997746;28;20215;-78
2021/12/04 13:59:29;;;;;;;10.97;8.90;;;;;;;;;;5003794;28;20206;-79
2021/12/04 14:02:33;;;;;;;13.40;10.43;;;;;;;;;;4996696;28;20210;-79
2021/12/04 14:05:37;;;;;;;13.13;9.10;;;;;;;;;;4997297;28;20186;-78
2021/12/04 14:08:42;;;;;;;8.87;7.00;;;;;;;;;;5005357;28;20190;-77
2021/12/04 14:11:47;;;;;;;4.37;3.60;;;;;;;;;;4994128;28;20705;-78
2021/12/04 14:14:51;;;;;;;2.47;1.93;;;;;;;;;;4995082;28;20194;-78
2021/12/04 14:18:07;;;;;;;6.60;3.80;;;;;;;;;;5001075;28;20194;-80
2021/12/04 14:21:15;;;;;;;9.43;4.60;;;;;;;;;;4994408;28;20214;-80
2021/12/04 14:24:24;;;;;;;15.17;5.60;;;;;;;;;;4973546;28;20202;-78
2021/12/04 14:27:35;;;;;;;39.10;12.97;;;;;;;;;;4995046;28;20388;-78
2021/12/04 14:30:43;;;;;;;19.43;9.70;;;;;;;;;;4986149;28;20183;-78
2021/12/04 14:33:47;;;;;;;6.93;3.83;;;;;;;;;;4996463;28;20186;-81
2021/12/04 14:37:02;;;;;;;3.87;2.43;;;;;;;;;;4983697;28;20206;-80
2021/12/04 14:40:11;;;;;;;6.23;4.27;;;;;;;;;;4983376;28;20570;-80
2021/12/04 14:43:21;;;;;;;19.07;13.57;;;;;;;;;;5001275;28;20182;-80
2021/12/04 14:46:27;;;;;;;7.07;5.03;;;;;;;;;;4981583;28;20508;-80
2021/12/04 14:49:31;;;;;;;6.53;4.87;;;;;;;;;;4981508;28;20198;-81
2021/12/04 14:52:37;;;;;;;9.13;6.97;;;;;;;;;;4972302;28;20215;-79
2021/12/04 14:55:44;;;;;;;12.23;11.03;;;;;;;;;;4996136;28;20218;-80
2021/12/04 14:58:49;;;;;;;3.43;3.13;;;;;;;;;;4994295;28;20182;-80
2021/12/04 15:01:53;;;;;;;2.60;2.40;;;;;;;;;;4992769;28;20678;-81
2021/12/04 15:04:58;;;;;;;51.30;32.10;;;;;;;;;;4983871;28;20634;-80
2021/12/04 15:08:12;;;;;;;30.77;21.67;;;;;;;;;;5005784;28;20186;-78
2021/12/04 15:11:19;;;;;;;10.07;9.00;;;;;;;;;;4981856;28;20222;-80
2021/12/04 15:14:32;;;;;;;7.83;6.00;;;;;;;;;;4982293;28;20186;-80
2021/12/04 15:17:40;;;;;;;12.47;11.23;;;;;;;;;;4963061;28;20186;-79
2021/12/04 15:20:59;;;;;;;3.50;3.20;;;;;;;;;;4984706;28;20548;-78
2021/12/04 15:24:04;;;;;;;1.17;1.07;;;;;;;;;;4999796;28;20659;-79
2021/12/04 15:27:16;;;;;;;2.77;1.20;;;;;;;;;;4984625;28;20198;-78
2021/12/04 15:30:20;;;;;;;1.20;1.00;;;;;;;;;;4975423;28;20179;-79
2021/12/04 15:33:34;;;;;;;3.40;1.20;;;;;;;;;;4980565;28;20194;-79
2021/12/04 15:36:44;;;;;;;1.97;1.77;;;;;;;;;;4977744;28;20206;-79
2021/12/04 15:39:49;;;;;;;4.70;4.30;;;;;;;;;;4972363;28;20197;-79
2021/12/04 15:43:08;;;;;;;18.37;16.57;;;;;;;;;;5007758;28;20567;-79
2021/12/04 15:46:25;;;;;;;14.03;12.23;;;;;;;;;;5004891;28;20207;-78
2021/12/04 15:49:55;;;;;;;7.33;4.63;;;;;;;;;;4990284;28;20198;-78
2021/12/04 15:53:07;;;;;;;11.10;8.67;;;;;;;;;;4980960;28;20182;-78
2021/12/04 15:56:11;;;;;;;3.87;3.47;;;;;;;;;;4962605;28;20218;-77
2021/12/04 15:59:18;;;;;;;4.00;3.60;;;;;;;;;;4992599;28;20186;-78
2021/12/04 16:02:30;;;;;;;5.63;3.87;;;;;;;;;;4992413;28;20221;-78
2021/12/04 16:05:41;;;;;;;5.20;3.93;;;;;;;;;;4975339;28;20202;-78
2021/12/04 16:08:46;;;;;;;57.90;33.73;;;;;;;;;;4973538;28;20183;-78
2021/12/04 16:12:07;;;;;;;8.30;6.23;;;;;;;;;;4978066;28;20588;-79
2021/12/04 16:15:15;;;;;;;4.00;3.20;;;;;;;;;;4983458;28;20182;-78
2021/12/04 16:18:24;;;;;;;3.03;2.50;;;;;;;;;;4976796;28;20202;-78
2021/12/04 16:21:28;;;;;;;1.73;1.20;;;;;;;;;;4990986;28;20214;-78
2021/12/04 16:24:33;;;;;;;3.13;1.70;;;;;;;;;;4964360;28;20233;-78
2021/12/04 16:28:01;;;;;;;3.97;2.43;;;;;;;;;;4986987;28;20190;-77
2021/12/04 16:31:29;;;;;;;5.20;3.30;;;;;;;;;;4975981;28;20218;-80
2021/12/04 16:35:23;;;;;;;7.50;5.10;;;;;;;;;;4985043;28;20182;-80
2021/12/04 16:37:58;;;;;;;4.20;1.20;;;;;;;;;;5000324;28;20194;-78
2021/12/04 16:41:07;;;;;;;2.53;1.00;;;;;;;;;;4985003;28;20215;-78
2021/12/04 16:44:12;;;;;;;1.23;1.07;;;;;;;;;;5016645;23;20228;-77
2021/12/04 16:47:17;;;;;;;1.10;1.00;;;;;;;;;;5015233;28;20193;-76
2021/12/04 16:50:25;;;;;;;1.90;1.70;;;;;;;;;;5013668;28;20677;-77
2021/12/04 17:00:07;;;;;;;1.40;1.20;;;;;;;;;;5008125;28;20185;-76
2021/12/04 17:03:12;;;;;;;1.20;1.10;;;;;;;;;;5007877;28;20193;-76
2021/12/04 17:06:19;;;;;;;2.87;2.00;;;;;;;;;;5012547;28;20190;-76
2021/12/04 17:09:25;;;;;;;1.20;1.10;;;;;;;;;;5001181;28;20211;-76
2021/12/04 17:12:33;;;;;;;1.33;1.23;;;;;;;;;;5013014;28;20217;-76
2021/12/04 17:15:46;;;;;;;0.97;0.90;;;;;;;;;;5004322;28;20190;-76
2021/12/04 17:18:51;;;;;;;8.20;4.33;;;;;;;;;;5013124;28;20197;-76
2021/12/04 17:21:57;;;;;;;1.33;1.10;;;;;;;;;;4991479;28;20216;-77
2021/12/04 17:25:02;;;;;;;1.30;1.10;;;;;;;;;;5013537;28;20181;-77
2021/12/04 17:28:09;;;;;;;1.47;1.10;;;;;;;;;;5012288;28;20256;-77
2021/12/04 17:31:16;;;;;;;0.73;0.70;;;;;;;;;;4999085;28;20217;-76
2021/12/04 17:34:21;;;;;;;1.20;1.10;;;;;;;;;;5014556;28;20177;-76
2021/12/04 17:37:29;;;;;;;2.43;2.23;;;;;;;;;;5005145;28;20210;-77
2021/12/04 17:40:35;;;;;;;3.40;3.10;;;;;;;;;;5016463;28;20181;-76
2021/12/04 17:43:40;;;;;;;4.20;3.57;;;;;;;;;;5016162;28;20205;-76
2021/12/04 17:46:46;;;;;;;9.87;7.17;;;;;;;;;;5016626;28;20199;-76
2021/12/04 17:49:50;;;;;;;3.10;2.67;;;;;;;;;;4993410;28;20193;-77
2021/12/04 17:52:57;;;;;;;1.80;0.93;;;;;;;;;;5004748;28;20213;-75
2021/12/04 17:56:01;;;;;;;1.30;1.20;;;;;;;;;;5000169;28;20200;-77
2021/12/04 17:59:07;;;;;;;2.70;1.57;;;;;;;;;;5013147;28;20201;-75
2021/12/04 18:02:13;;;;;;;1.33;1.23;;;;;;;;;;4995757;28;20220;-76
2021/12/04 18:05:24;;;;;;;1.37;1.27;;;;;;;;;;5012669;28;20197;-76
2021/12/04 18:08:28;;;;;;;1.63;1.53;;;;;;;;;;4981376;28;20179;-76
2021/12/04 18:11:38;;;;;;;0.83;0.83;;;;;;;;;;5012558;28;20221;-74
2021/12/04 18:14:45;;;;;;;1.40;1.20;;;;;;;;;;5012306;28;20197;-75
2021/12/04 18:17:50;;;;;;;1.57;1.20;;;;;;;;;;4993301;28;20587;-77
2021/12/04 18:20:54;;;;;;;0.80;0.70;;;;;;;;;;4987083;28;20571;-76
2021/12/04 18:24:00;;;;;;;0.83;0.83;;;;;;;;;;5006378;28;20205;-77
2021/12/04 18:27:05;;;;;;;2.07;1.00;;;;;;;;;;4987257;28;20185;-77
2021/12/04 18:30:13;;;;;;;0.80;0.70;;;;;;;;;;5000341;28;20642;-76
2021/12/04 18:33:20;;;;;;;1.73;0.90;;;;;;;;;;4989465;28;20190;-77
2021/12/04 18:36:25;;;;;;;0.73;0.73;;;;;;;;;;5000489;28;20209;-77
2021/12/04 18:39:31;;;;;;;1.03;0.50;;;;;;;;;;4993577;28;20178;-77
2021/12/04 18:42:36;;;;;;;3.83;2.30;;;;;;;;;;4997214;28;20767;-77
2021/12/04 18:45:40;;;;;;;1.70;1.30;;;;;;;;;;4982920;28;20186;-77
2021/12/04 18:48:46;;;;;;;1.63;0.97;;;;;;;;;;4988808;28;20912;-77
2021/12/04 18:51:52;;;;;;;1.00;0.90;;;;;;;;;;4991817;28;20217;-76
2021/12/04 18:54:56;;;;;;;1.37;0.90;;;;;;;;;;4972388;28;20202;-76
2021/12/04 18:58:01;;;;;;;1.77;1.10;;;;;;;;;;5007395;28;20228;-77
2021/12/04 19:01:06;;;;;;;10.77;7.20;;;;;;;;;;5000594;28;20221;-77
2021/12/04 19:04:11;;;;;;;5.13;3.87;;;;;;;;;;4990745;28;20185;-77
2021/12/04 19:07:15;;;;;;;8.67;4.80;;;;;;;;;;5001591;28;20190;-78
2021/12/04 19:10:19;;;;;;;7.77;6.23;;;;;;;;;;4980612;28;20178;-78
2021/12/04 19:13:24;;;;;;;7.03;5.43;;;;;;;;;;5001970;28;20201;-77
2021/12/04 19:16:29;;;;;;;2.77;2.57;;;;;;;;;;4970255;28;20218;-76
2021/12/04 19:19:34;;;;;;;3.10;2.60;;;;;;;;;;4981066;28;20178;-77
2021/12/04 19:22:41;;;;;;;1.90;1.57;;;;;;;;;;4971445;28;20221;-78
2021/12/04 19:25:47;;;;;;;2.53;1.70;;;;;;;;;;4977576;28;20543;-77
2021/12/04 19:28:51;;;;;;;2.80;1.80;;;;;;;;;;4999987;28;20669;-76
2021/12/04 19:32:05;;;;;;;6.80;3.37;;;;;;;;;;4978431;28;20225;-77
2021/12/04 19:48:40;;;;;;;1.40;0.80;;;;;;;;;;4998118;28;20182;-76
2021/12/04 19:51:47;;;;;;;1.27;1.17;;;;;;;;;;5011083;28;20221;-76
2021/12/04 19:55:10;;;;;;;1.10;1.00;;;;;;;;;;4989956;28;20566;-76
2021/12/04 19:58:19;;;;;;;1.23;1.10;;;;;;;;;;4985931;28;20209;-75
2021/12/04 20:01:41;;;;;;;2.90;1.10;;;;;;;;;;5010922;28;20217;-75
2021/12/04 20:14:55;;;;;;;1.20;1.00;;;;;;;;;;4990042;28;20651;-76
2021/12/04 20:17:59;;;;;;;0.80;0.80;;;;;;;;;;4993583;28;20213;-76
2021/12/04 20:21:09;;;;;;;1.07;0.90;;;;;;;;;;4998233;28;20236;-76
2021/12/04 20:24:14;;;;;;;2.27;0.80;;;;;;;;;;5010249;28;20579;-76
2021/12/04 20:27:24;;;;;;;1.27;0.90;;;;;;;;;;5010197;28;20177;-75
2021/12/04 20:33:47;;;;;;;1.20;0.80;;;;;;;;;;4996292;28;20190;-75
2021/12/04 21:07:41;;;;;;;0.60;0.60;;;;;;;;;;4985244;28;20196;-75
2021/12/04 21:50:45;;;;;;;0.70;0.63;;;;;;;;;;4997517;28;20181;-75
2021/12/04 21:53:50;;;;;;;0.90;0.70;;;;;;;;;;4977942;28;20182;-76
2021/12/04 22:10:23;;;;;;;0.73;0.70;;;;;;;;;;4990010;28;20188;-75
2021/12/04 22:14:42;;;;;;;0.67;0.63;;;;;;;;;;5006063;28;20973;-75
2021/12/04 22:17:15;;;;;;;1.10;0.80;;;;;;;;;;4989819;28;20206;-75
2021/12/04 22:58:12;;;;;;;1.87;1.00;;;;;;;;;;5000969;28;20222;-75
2021/12/04 23:01:26;;;;;;;1.30;1.20;;;;;;;;;;4983882;28;20218;-75
2021/12/04 23:12:20;;;;;;;1.20;1.10;;;;;;;;;;4976253;28;20225;-76
2021/12/04 23:15:00;;;;;;;1.30;1.17;;;;;;;;;;5019894;23;20567;-78
2021/12/04 23:35:29;;;;;;;0.90;0.90;;;;;;;;;;4997756;28;20179;-77
